createdAt,value
2019-03-18T00:01:15.905Z,4.00
2019-03-18T00:03:48.641Z,4.10
2019-03-18T00:06:22.084Z,4.00
2019-03-18T00:08:54.082Z,4.00
2019-03-18T00:11:24.889Z,4.10
2019-03-18T00:13:55.405Z,4.20
2019-03-18T00:16:25.978Z,4.30
2019-03-18T00:18:57.456Z,4.10
2019-03-18T00:21:28.523Z,3.90
2019-03-18T00:24:00.701Z,4.20
2019-03-18T00:26:34.268Z,4.10
2019-03-18T00:29:04.784Z,4.00
2019-03-18T00:31:35.351Z,3.90
2019-03-18T00:34:05.848Z,3.90
2019-03-18T00:36:39.048Z,4.00
2019-03-18T00:39:09.427Z,3.90
2019-03-18T00:41:39.994Z,3.90
2019-03-18T00:48:05.988Z,3.90
2019-03-18T00:50:36.671Z,4.00
2019-03-18T00:53:07.243Z,4.10
2019-03-18T00:55:41.055Z,4.00
2019-03-18T00:58:11.623Z,4.10
2019-03-18T01:00:42.346Z,4.00
2019-03-18T01:03:13.642Z,4.00
2019-03-18T01:05:45.411Z,4.10
2019-03-18T01:08:19.168Z,4.20
2019-03-18T01:10:49.877Z,4.20
2019-03-18T01:13:20.672Z,4.10
2019-03-18T01:15:51.685Z,4.10
2019-03-18T01:18:23.266Z,4.10
2019-03-18T01:20:55.536Z,3.90
2019-03-18T01:23:27.743Z,4.20
2019-03-18T01:25:58.357Z,4.00
2019-03-18T01:28:29.004Z,3.90
2019-03-18T01:31:05.393Z,4.10
2019-03-18T01:33:41.232Z,4.10
2019-03-18T01:36:14.184Z,4.10
2019-03-18T01:38:48.087Z,4.10
2019-03-18T01:41:18.669Z,4.00
2019-03-18T01:43:49.259Z,4.00
2019-03-18T01:46:19.785Z,4.00
2019-03-18T01:48:54.701Z,4.00
2019-03-18T01:51:25.520Z,4.10
2019-03-18T01:53:57.713Z,4.10
2019-03-18T01:56:28.567Z,4.10
2019-03-18T01:58:59.382Z,3.90
2019-03-18T02:01:31.509Z,3.90
2019-03-18T02:04:02.132Z,3.90
2019-03-18T02:06:35.520Z,3.90
2019-03-18T02:09:07.363Z,4.00
2019-03-18T02:11:43.081Z,3.90
2019-03-18T02:14:15.277Z,4.10
2019-03-18T02:16:45.955Z,4.10
2019-03-18T02:19:19.677Z,4.00
2019-03-18T02:21:50.388Z,3.90
2019-03-18T02:24:21.189Z,4.00
2019-03-18T02:26:51.910Z,4.10
2019-03-18T02:29:24.539Z,4.00
2019-03-18T02:31:57.522Z,4.00
2019-03-18T02:34:28.049Z,3.90
2019-03-18T02:36:58.915Z,3.90
2019-03-18T02:39:32.671Z,3.80
2019-03-18T02:42:03.396Z,3.80
2019-03-18T02:44:34.418Z,3.70
2019-03-18T02:47:05.094Z,3.80
2019-03-18T02:49:36.027Z,3.70
2019-03-18T02:52:09.543Z,3.70
2019-03-18T02:54:41.155Z,3.60
2019-03-18T02:57:11.759Z,3.60
2019-03-18T02:59:46.886Z,3.50
2019-03-18T03:02:19.512Z,3.50
2019-03-18T03:04:54.412Z,3.60
2019-03-18T03:07:25.047Z,3.50
2019-03-18T03:10:01.719Z,3.60
2019-03-18T03:12:33.674Z,3.40
2019-03-18T03:15:04.644Z,3.40
2019-03-18T03:17:37.858Z,3.50
2019-03-18T03:20:08.790Z,3.40
2019-03-18T03:22:39.435Z,3.20
2019-03-18T03:25:10.273Z,3.20
2019-03-18T03:27:41.676Z,3.40
2019-03-18T03:30:12.875Z,3.50
2019-03-18T03:32:47.307Z,3.40
2019-03-18T03:35:18.045Z,3.60
2019-03-18T03:37:49.422Z,3.50
2019-03-18T03:40:23.166Z,3.60
2019-03-18T03:42:54.245Z,3.60
2019-03-18T03:45:24.844Z,3.40
2019-03-18T03:47:57.120Z,3.50
2019-03-18T03:50:27.682Z,3.50
2019-03-18T03:52:58.206Z,3.60
2019-03-18T03:55:28.889Z,3.50
2019-03-18T03:57:59.492Z,3.40
2019-03-18T04:04:01.288Z,3.50
2019-03-18T04:06:32.101Z,3.60
2019-03-18T04:09:05.521Z,3.60
2019-03-18T04:11:38.467Z,3.60
2019-03-18T04:14:09.164Z,3.60
2019-03-18T04:16:45.904Z,3.60
2019-03-18T04:19:15.886Z,3.50
2019-03-18T04:21:50.412Z,3.60
2019-03-18T04:24:19.396Z,3.70
2019-03-18T04:26:50.119Z,3.80
2019-03-18T04:29:23.684Z,3.70
2019-03-18T04:31:56.981Z,3.80
2019-03-18T04:34:27.867Z,3.80
2019-03-18T04:37:00.844Z,3.80
2019-03-18T04:39:34.185Z,3.80
2019-03-18T04:42:07.100Z,3.90
2019-03-18T04:44:38.224Z,3.80
2019-03-18T04:47:14.389Z,3.90
2019-03-18T04:49:41.619Z,3.90
2019-03-18T04:52:15.576Z,4.00
2019-03-18T04:54:46.185Z,3.90
2019-03-18T04:57:20.159Z,3.90
2019-03-18T04:59:51.587Z,3.90
2019-03-18T05:02:22.099Z,4.00
2019-03-18T05:04:56.457Z,4.00
2019-03-18T05:07:36.223Z,4.00
2019-03-18T05:10:10.453Z,3.90
2019-03-18T05:12:41.342Z,4.10
2019-03-18T05:15:12.462Z,4.10
2019-03-18T05:17:46.406Z,4.20
2019-03-18T05:20:20.424Z,4.10
2019-03-18T05:22:51.167Z,4.10
2019-03-18T05:25:22.385Z,4.10
2019-03-18T05:27:57.123Z,4.20
2019-03-18T05:30:31.798Z,4.10
2019-03-18T05:36:57.587Z,4.20
2019-03-18T05:39:30.209Z,4.20
2019-03-18T05:42:03.029Z,4.10
2019-03-18T05:48:27.730Z,4.20
2019-03-18T05:50:58.629Z,4.10
2019-03-18T05:53:29.932Z,4.20
2019-03-18T05:56:12.032Z,4.20
2019-03-18T05:58:45.292Z,4.20
2019-03-18T06:01:18.515Z,4.20
2019-03-18T06:03:53.135Z,4.20
2019-03-18T06:06:24.816Z,4.20
2019-03-18T06:08:59.691Z,4.30
2019-03-18T06:11:30.812Z,4.30
2019-03-18T06:14:01.787Z,4.30
2019-03-18T06:16:34.332Z,4.30
2019-03-18T06:22:49.750Z,4.30
2019-03-18T06:25:23.109Z,4.40
2019-03-18T06:27:54.053Z,4.40
2019-03-18T06:34:06.896Z,4.40
2019-03-18T06:36:37.576Z,4.50
2019-03-18T06:39:08.441Z,4.50
2019-03-18T06:41:40.619Z,4.50
2019-03-18T06:44:13.640Z,4.50
2019-03-18T06:46:48.116Z,4.50
2019-03-18T06:49:19.065Z,4.50
2019-03-18T06:51:51.617Z,4.50
2019-03-18T06:54:25.504Z,4.50
2019-03-18T06:56:59.476Z,4.50
2019-03-18T06:59:32.402Z,4.50
2019-03-18T07:02:04.526Z,4.50
2019-03-18T07:04:35.249Z,4.50
2019-03-18T07:07:06.075Z,4.50
2019-03-18T07:09:37.420Z,4.50
2019-03-18T07:12:08.517Z,4.50
2019-03-18T07:14:41.434Z,4.60
2019-03-18T07:17:13.517Z,4.60
2019-03-18T07:19:45.048Z,4.70
2019-03-18T07:22:15.957Z,4.70
2019-03-18T07:24:47.832Z,4.70
2019-03-18T07:27:18.704Z,4.80
2019-03-18T07:29:50.435Z,4.70
2019-03-18T07:32:25.778Z,4.70
2019-03-18T07:34:58.294Z,4.80
2019-03-18T07:37:29.259Z,4.90
2019-03-18T07:40:00.492Z,4.90
2019-03-18T07:42:33.841Z,5.00
2019-03-18T07:45:07.457Z,5.10
2019-03-18T07:47:38.159Z,5.10
2019-03-18T07:50:09.686Z,5.10
2019-03-18T07:52:40.412Z,5.20
2019-03-18T07:55:13.095Z,5.20
2019-03-18T07:57:46.789Z,5.20
2019-03-18T08:04:17.394Z,5.20
2019-03-18T08:06:48.139Z,5.30
2019-03-18T08:09:19.670Z,5.40
2019-03-18T08:11:50.454Z,5.50
2019-03-18T08:14:23.618Z,5.70
2019-03-18T08:16:54.524Z,6.00
2019-03-18T08:19:25.470Z,5.90
2019-03-18T08:21:56.926Z,5.80
2019-03-18T08:24:31.161Z,6.00
2019-03-18T08:27:10.629Z,5.70
2019-03-18T08:29:42.647Z,5.90
2019-03-18T08:32:13.430Z,5.90
2019-03-18T08:34:44.168Z,6.00
2019-03-18T08:37:15.003Z,6.00
2019-03-18T08:39:45.840Z,6.10
2019-03-18T08:42:18.637Z,6.00
2019-03-18T08:48:55.140Z,5.80
2019-03-18T08:51:17.358Z,5.70
2019-03-18T08:53:49.663Z,5.70
2019-03-18T08:56:21.488Z,5.70
2019-03-18T08:58:58.304Z,5.80
2019-03-18T09:01:29.538Z,6.00
2019-03-18T09:04:00.386Z,6.00
2019-03-18T09:06:34.016Z,5.80
2019-03-18T09:12:48.813Z,6.10
2019-03-18T09:15:20.064Z,6.20
2019-03-18T09:17:52.380Z,6.30
2019-03-18T09:20:23.488Z,6.10
2019-03-18T09:23:01.704Z,6.30
2019-03-18T09:25:32.677Z,6.30
2019-03-18T09:28:03.335Z,6.50
2019-03-18T09:30:35.948Z,6.70
2019-03-18T09:33:25.434Z,6.50
2019-03-18T09:35:59.196Z,6.60
2019-03-18T09:38:36.175Z,6.50
2019-03-18T09:41:10.436Z,6.90
2019-03-18T09:47:35.946Z,6.80
2019-03-18T09:50:10.807Z,6.80
2019-03-18T09:52:44.770Z,6.60
2019-03-18T09:55:18.255Z,6.50
2019-03-18T09:57:51.083Z,6.60
2019-03-18T10:00:22.032Z,6.60
2019-03-18T10:02:53.029Z,6.40
2019-03-18T10:09:08.802Z,6.60
2019-03-18T10:11:40.233Z,6.70
2019-03-18T10:14:11.256Z,6.80
2019-03-18T10:16:45.387Z,6.60
2019-03-18T10:19:18.449Z,6.80
2019-03-18T10:21:53.518Z,6.80
2019-03-18T10:24:24.130Z,6.90
2019-03-18T10:30:53.372Z,6.80
2019-03-18T10:33:30.258Z,7.00
2019-03-18T10:40:02.186Z,7.90
2019-03-18T10:42:37.893Z,7.90
2019-03-18T10:49:15.722Z,7.80
2019-03-18T10:51:48.222Z,8.10
2019-03-18T10:54:30.437Z,7.70
2019-03-18T10:56:54.463Z,8.00
2019-03-18T10:59:26.065Z,8.40
2019-03-18T11:01:58.565Z,8.50
2019-03-18T11:08:12.225Z,7.50
2019-03-18T11:10:46.329Z,8.40
2019-03-18T11:17:00.299Z,8.80
2019-03-18T11:19:33.226Z,8.10
2019-03-18T11:25:46.378Z,11.40
2019-03-18T11:28:18.731Z,10.00
2019-03-18T11:30:49.225Z,10.50
2019-03-18T11:37:16.188Z,8.60
2019-03-18T11:39:48.601Z,8.80
2019-03-18T11:42:19.321Z,8.10
2019-03-18T11:48:32.127Z,11.50
2019-03-18T11:51:07.671Z,10.40
2019-03-18T11:53:38.450Z,11.10
2019-03-18T11:56:12.251Z,10.50
2019-03-18T11:58:44.819Z,10.40
2019-03-18T12:01:15.708Z,9.60
2019-03-18T12:03:47.143Z,10.30
2019-03-18T12:06:21.285Z,10.70
2019-03-18T12:08:57.074Z,11.90
2019-03-18T12:11:34.457Z,12.50
2019-03-18T12:14:09.941Z,12.90
2019-03-18T12:16:40.793Z,12.00
2019-03-18T12:23:00.833Z,10.90
2019-03-18T12:25:34.233Z,9.70
2019-03-18T12:28:06.526Z,9.80
2019-03-18T12:30:38.139Z,9.20
2019-03-18T12:33:09.701Z,9.10
2019-03-18T12:39:27.249Z,9.50
2019-03-18T12:41:58.587Z,9.10
2019-03-18T12:44:29.291Z,8.30
2019-03-18T12:47:03.609Z,7.80
2019-03-18T12:53:21.385Z,10.10
2019-03-18T12:55:53.107Z,13.20
2019-03-18T13:02:07.713Z,11.70
2019-03-18T13:04:38.919Z,11.50
2019-03-18T13:07:11.785Z,12.40
2019-03-18T13:09:43.551Z,10.10
2019-03-18T13:12:15.846Z,11.50
2019-03-18T13:14:51.200Z,11.00
2019-03-18T13:17:22.982Z,11.20
2019-03-18T13:19:59.806Z,10.20
2019-03-18T13:22:32.521Z,10.00
2019-03-18T13:25:04.625Z,10.50
2019-03-18T13:31:23.663Z,10.70
2019-03-18T13:33:56.452Z,9.90
2019-03-18T13:40:12.767Z,8.90
2019-03-18T13:42:43.507Z,8.30
2019-03-18T13:48:56.568Z,6.90
2019-03-18T13:55:24.301Z,6.70
2019-03-18T13:57:54.898Z,6.70
2019-03-18T14:00:25.897Z,6.70
2019-03-18T14:02:56.911Z,6.70
2019-03-18T14:09:14.302Z,7.00
2019-03-18T14:11:45.326Z,7.60
2019-03-18T14:14:16.004Z,7.80
2019-03-18T14:16:50.780Z,7.50
2019-03-18T14:19:21.505Z,7.70
2019-03-18T14:21:54.051Z,7.40
2019-03-18T14:24:25.526Z,7.70
2019-03-18T14:26:56.412Z,7.80
2019-03-18T14:29:26.992Z,8.00
2019-03-18T14:32:00.914Z,8.20
2019-03-18T14:38:15.711Z,7.90
2019-03-18T14:40:47.925Z,8.10
2019-03-18T14:43:18.523Z,8.10
2019-03-18T14:45:50.848Z,8.20
2019-03-18T14:48:21.427Z,8.20
2019-03-18T14:54:34.882Z,8.20
2019-03-18T14:57:06.740Z,8.20
2019-03-18T14:59:37.639Z,8.30
2019-03-18T15:02:09.167Z,8.30
2019-03-18T15:08:44.136Z,8.20
2019-03-18T15:11:17.147Z,8.20
2019-03-18T15:13:55.068Z,8.40
2019-03-18T15:20:25.478Z,8.40
2019-03-18T15:22:58.161Z,8.00
2019-03-18T15:25:33.942Z,7.90
2019-03-18T15:28:07.878Z,7.90
2019-03-18T15:30:41.349Z,7.90
2019-03-18T15:33:15.362Z,7.80
2019-03-18T15:35:46.238Z,7.80
2019-03-18T15:38:19.275Z,7.80
2019-03-18T15:40:50.154Z,7.90
2019-03-18T15:47:03.789Z,8.00
2019-03-18T15:49:39.105Z,8.00
2019-03-18T15:52:11.287Z,8.10
2019-03-18T15:54:53.411Z,8.20
2019-03-18T16:00:58.060Z,8.30
2019-03-18T16:03:29.872Z,8.00
2019-03-18T16:06:05.463Z,7.50
2019-03-18T16:08:38.406Z,7.40
2019-03-18T16:11:10.269Z,7.20
2019-03-18T16:13:41.018Z,7.10
2019-03-18T16:16:15.334Z,7.10
2019-03-18T16:18:48.953Z,7.20
2019-03-18T16:25:11.661Z,6.90
2019-03-18T16:27:55.262Z,6.60
2019-03-18T16:30:35.016Z,6.40
2019-03-18T16:33:13.271Z,6.30
2019-03-18T16:35:45.180Z,6.10
2019-03-18T16:38:17.674Z,6.10
2019-03-18T16:40:50.822Z,6.10
2019-03-18T16:47:15.982Z,6.20
2019-03-18T16:49:46.957Z,5.90
2019-03-18T16:52:20.471Z,6.00
2019-03-18T16:58:28.242Z,6.10
2019-03-18T17:04:54.028Z,6.00
2019-03-18T17:11:06.983Z,5.80
2019-03-18T17:13:38.018Z,5.70
2019-03-18T17:16:08.828Z,5.80
2019-03-18T17:18:39.613Z,5.70
2019-03-18T17:21:10.369Z,5.70
2019-03-18T17:23:42.613Z,5.60
2019-03-18T17:26:15.285Z,5.50
2019-03-18T17:28:47.188Z,5.40
2019-03-18T17:31:17.907Z,5.30
2019-03-18T17:33:51.693Z,5.30
2019-03-18T17:36:22.389Z,5.20
2019-03-18T17:38:54.936Z,5.30
2019-03-18T17:41:25.671Z,5.10
2019-03-18T17:43:58.920Z,5.10
2019-03-18T17:46:29.852Z,5.10
2019-03-18T17:49:00.488Z,5.10
2019-03-18T17:51:33.357Z,5.00
2019-03-18T17:54:07.313Z,5.10
2019-03-18T17:56:45.698Z,5.00
2019-03-18T17:59:16.406Z,5.10
2019-03-18T18:01:48.741Z,5.00
2019-03-18T18:04:22.392Z,5.00
2019-03-18T18:06:57.179Z,5.00
2019-03-18T18:09:27.875Z,5.00
2019-03-18T18:11:58.567Z,5.00
2019-03-18T18:14:33.925Z,5.10
2019-03-18T18:20:47.210Z,5.10
2019-03-18T18:23:20.617Z,4.90
2019-03-18T18:25:51.195Z,5.00
2019-03-18T18:28:21.725Z,4.90
2019-03-18T18:30:52.518Z,5.00
2019-03-18T18:33:25.415Z,5.00
2019-03-18T18:35:59.784Z,4.70
2019-03-18T18:38:34.188Z,4.80
2019-03-18T18:41:08.167Z,4.90
2019-03-18T18:43:43.613Z,4.90
2019-03-18T18:46:15.555Z,4.80
2019-03-18T18:48:46.348Z,4.70
2019-03-18T18:51:16.901Z,4.80
2019-03-18T18:53:47.471Z,4.80
2019-03-18T18:56:18.008Z,4.80
2019-03-18T18:58:51.531Z,4.80
2019-03-18T19:01:22.020Z,4.90
2019-03-18T19:03:52.641Z,4.90
2019-03-18T19:06:25.435Z,5.00
2019-03-18T19:09:06.727Z,5.10
2019-03-18T19:11:37.695Z,5.10
2019-03-18T19:14:08.279Z,5.00
2019-03-18T19:20:45.559Z,5.10
2019-03-18T19:23:19.649Z,5.10
2019-03-18T19:25:57.305Z,5.10
2019-03-18T19:32:23.215Z,5.10
2019-03-18T19:34:58.940Z,4.90
2019-03-18T19:37:34.238Z,4.90
2019-03-18T19:40:06.795Z,4.90
2019-03-18T19:42:38.843Z,4.90
2019-03-18T19:45:12.616Z,5.00
2019-03-18T19:47:43.383Z,5.00
2019-03-18T19:50:20.487Z,5.00
2019-03-18T19:52:51.239Z,5.00
2019-03-18T19:55:25.650Z,5.10
2019-03-18T20:01:39.986Z,5.00
2019-03-18T20:04:12.236Z,4.90
2019-03-18T20:06:44.331Z,4.80
2019-03-18T20:09:17.478Z,4.70
2019-03-18T20:11:50.657Z,4.60
2019-03-18T20:14:21.640Z,4.50
2019-03-18T20:16:53.022Z,4.40
2019-03-18T20:19:25.708Z,4.30
2019-03-18T20:21:56.313Z,4.20
2019-03-18T20:24:26.814Z,4.20
2019-03-18T20:26:57.418Z,4.20
2019-03-18T20:29:28.151Z,4.20
2019-03-18T20:31:59.060Z,4.20
2019-03-18T20:34:29.695Z,4.20
2019-03-18T20:41:07.209Z,4.20
2019-03-18T20:43:38.034Z,4.20
2019-03-18T20:46:08.734Z,4.10
2019-03-18T20:48:40.379Z,4.20
2019-03-18T20:51:10.942Z,4.20
2019-03-18T20:53:43.014Z,4.20
2019-03-18T20:56:13.649Z,4.30
2019-03-18T20:58:44.263Z,4.30
2019-03-18T21:01:14.817Z,4.40
2019-03-18T21:03:45.390Z,4.40
2019-03-18T21:06:16.411Z,4.40
2019-03-18T21:08:47.040Z,4.40
2019-03-18T21:11:17.815Z,4.50
2019-03-18T21:13:56.635Z,4.50
2019-03-18T21:16:21.182Z,4.50
2019-03-18T21:18:51.879Z,4.40
2019-03-18T21:25:17.221Z,4.10
2019-03-18T21:27:47.933Z,3.80
2019-03-18T21:30:18.796Z,3.80
2019-03-18T21:32:49.571Z,3.80
2019-03-18T21:35:20.788Z,3.90
2019-03-18T21:37:51.480Z,3.80
2019-03-18T21:40:22.084Z,3.70
2019-03-18T21:42:52.773Z,3.60
2019-03-18T21:49:19.476Z,3.60
2019-03-18T21:55:32.520Z,3.70
2019-03-18T21:58:03.113Z,3.80
2019-03-18T22:00:33.604Z,3.90
2019-03-18T22:03:04.761Z,3.90
2019-03-18T22:05:37.833Z,4.00
2019-03-18T22:08:13.498Z,4.00
2019-03-18T22:10:48.674Z,4.00
2019-03-18T22:13:19.430Z,4.00
2019-03-18T22:15:51.303Z,4.10
2019-03-18T22:18:23.068Z,4.00
2019-03-18T22:20:53.597Z,4.00
2019-03-18T22:23:24.197Z,4.00
2019-03-18T22:25:54.877Z,4.00
2019-03-18T22:28:26.846Z,4.00
2019-03-18T22:30:57.615Z,3.90
2019-03-18T22:33:28.358Z,3.80
2019-03-18T22:36:00.493Z,3.90
2019-03-18T22:38:31.252Z,3.90
2019-03-18T22:41:06.783Z,3.90
2019-03-18T22:43:37.587Z,4.00
2019-03-18T22:46:09.817Z,4.00
2019-03-18T22:48:40.333Z,4.00
2019-03-18T22:51:10.805Z,4.00
2019-03-18T22:53:41.339Z,4.00
2019-03-18T22:56:12.005Z,4.10
2019-03-18T22:58:42.568Z,4.10
2019-03-18T23:01:16.094Z,4.10
2019-03-18T23:03:46.673Z,4.10
2019-03-18T23:06:17.250Z,4.10
2019-03-18T23:08:48.932Z,4.10
2019-03-18T23:11:20.335Z,4.10
2019-03-18T23:13:50.905Z,4.10
2019-03-18T23:20:16.487Z,4.10
2019-03-18T23:22:49.137Z,4.10
2019-03-18T23:25:21.108Z,4.10
2019-03-18T23:27:55.414Z,4.20
2019-03-18T23:30:27.407Z,4.10
2019-03-18T23:33:01.867Z,4.10
2019-03-18T23:35:32.590Z,4.10
2019-03-18T23:38:05.096Z,4.00
2019-03-18T23:40:40.263Z,4.00
2019-03-18T23:43:16.506Z,3.90
2019-03-18T23:45:51.484Z,3.80
2019-03-18T23:48:22.025Z,3.70
2019-03-18T23:50:54.501Z,3.80
2019-03-18T23:53:26.885Z,3.90
2019-03-18T23:55:58.389Z,3.90
2019-03-18T23:58:30.212Z,3.90
